Time;durP1;ratioP1;P1;durP2;ratioP2;P2;SDS_P1;SDS_P2;PMS_P1;PMS_P2;Temp;Humidity;BMP_temperature;BMP_pressure;BME280_temperature;BME280_humidity;BME280_pressure;Samples;Min_cycle;Max_cycle;Signal;HPM_P1;HPM_P2
2021/05/22 00:01:18;;;;;;;2.42;1.00;;;;;;;12.26;72.14;98604.03;4404159;32;20375;-75
2021/05/22 00:03:44;;;;;;;2.03;0.80;;;;;;;12.36;73.11;98611.81;4407003;32;20108;-75
2021/05/22 00:06:10;;;;;;;2.65;0.90;;;;;;;12.37;73.23;98619.00;4400642;32;20077;-75
2021/05/22 00:08:36;;;;;;;3.60;0.80;;;;;;;12.42;73.38;98615.44;4404928;32;20424;-75
2021/05/22 00:11:03;;;;;;;1.55;0.50;;;;;;;12.38;72.19;98620.53;4406058;32;20030;-75
2021/05/22 00:13:29;;;;;;;1.30;0.55;;;;;;;12.21;71.92;98611.16;4405547;32;20080;-75
2021/05/22 00:15:55;;;;;;;1.52;0.68;;;;;;;12.06;72.59;98619.78;4405775;32;20042;-75
2021/05/22 00:18:21;;;;;;;3.65;0.68;;;;;;;12.12;72.68;98622.63;4405798;32;20498;-75
2021/05/22 00:20:47;;;;;;;2.33;0.55;;;;;;;12.19;73.37;98627.06;4406090;32;20459;-75
2021/05/22 00:23:15;;;;;;;1.95;0.50;;;;;;;12.25;73.50;98627.88;4406560;32;20093;-74
2021/05/22 00:25:41;;;;;;;0.70;0.40;;;;;;;12.25;73.00;98634.28;4406952;32;20430;-75
2021/05/22 00:28:07;;;;;;;1.23;0.50;;;;;;;12.34;71.94;98641.78;4403205;32;20095;-75
2021/05/22 00:30:33;;;;;;;1.92;0.30;;;;;;;12.27;72.16;98647.88;4406290;32;20462;-75
2021/05/22 00:32:58;;;;;;;0.95;0.28;;;;;;;12.09;71.77;98646.22;4404297;32;20124;-75
2021/05/22 00:35:24;;;;;;;0.52;0.30;;;;;;;12.13;71.65;98644.69;4406040;32;20077;-75
2021/05/22 00:37:51;;;;;;;0.85;0.45;;;;;;;12.17;71.77;98652.94;4405991;32;20312;-75
2021/05/22 00:40:16;;;;;;;0.40;0.25;;;;;;;12.05;72.26;98666.16;4407157;32;20129;-75
2021/05/22 00:42:44;;;;;;;0.70;0.30;;;;;;;11.97;71.79;98655.84;4408644;32;20515;-75
2021/05/22 00:47:49;;;;;;;1.10;0.47;;;;;;;12.45;70.65;98672.91;3957086;32;15726633;-75
2021/05/22 00:50:20;;;;;;;0.60;0.30;;;;;;;12.45;70.65;98672.91;4433198;32;20075;-75
2021/05/22 00:52:46;;;;;;;0.30;0.20;;;;;;;12.00;70.73;98680.19;4436289;32;20108;-74
2021/05/22 00:55:13;;;;;;;0.73;0.30;;;;;;;11.94;70.60;98680.13;4439899;32;20098;-75
2021/05/22 00:57:40;;;;;;;1.75;0.20;;;;;;;11.97;71.33;98681.19;4432662;32;20125;-75
2021/05/22 01:00:09;;;;;;;0.55;0.20;;;;;;;11.89;71.07;98686.50;4438232;32;20044;-75
2021/05/22 01:02:36;;;;;;;2.17;0.30;;;;;;;11.99;70.05;98681.44;4433802;32;20113;-75
2021/05/22 01:05:03;;;;;;;0.57;0.40;;;;;;;11.96;69.03;98683.22;4438615;32;20454;-75
2021/05/22 01:07:29;;;;;;;1.23;0.30;;;;;;;11.95;69.25;98692.19;4431828;32;20091;-75
2021/05/22 01:09:56;;;;;;;1.12;0.30;;;;;;;11.96;70.00;98696.53;4436549;32;20041;-74
2021/05/22 01:12:28;;;;;;;0.37;0.20;;;;;;;11.93;68.75;98698.31;4432332;32;20069;-75
2021/05/22 01:15:03;;;;;;;1.02;0.45;;;;;;;12.05;69.19;98696.38;4420898;32;20052;-75
2021/05/22 01:17:30;;;;;;;1.55;0.50;;;;;;;12.13;68.53;98695.44;4432997;32;20038;-75
2021/05/22 01:22:56;;;;;;;2.53;0.32;;;;;;;12.59;66.54;98695.34;4005692;31;15015272;-74
2021/05/22 01:28:00;;;;;;;0.30;0.20;;;;;;;12.49;66.56;98701.66;4005250;31;15014734;-76
2021/05/22 01:30:26;;;;;;;1.87;0.77;;;;;;;12.49;66.56;98701.66;4465720;32;20142;-75
2021/05/22 01:32:53;;;;;;;1.23;0.43;;;;;;;12.00;67.28;98705.56;4460936;32;20136;-75
2021/05/22 01:35:20;;;;;;;1.25;0.30;;;;;;;11.95;67.22;98709.09;4461296;32;20821;-75
2021/05/22 01:37:47;;;;;;;1.70;0.30;;;;;;;12.05;67.16;98716.91;4462542;32;21090;-75
2021/05/22 01:40:13;;;;;;;0.50;0.35;;;;;;;12.03;67.41;98718.66;4464458;32;20076;-75
2021/05/22 01:42:40;;;;;;;2.20;0.50;;;;;;;11.96;66.48;98719.09;4464543;32;20117;-76
2021/05/22 01:45:12;;;;;;;0.60;0.40;;;;;;;12.03;66.46;98727.87;4463245;32;20029;-76
2021/05/22 01:47:40;;;;;;;2.42;0.45;;;;;;;12.05;66.09;98728.16;4459856;32;20059;-76
2021/05/22 01:50:07;;;;;;;1.05;0.60;;;;;;;11.90;66.99;98740.81;4462632;32;20107;-76
2021/05/22 01:52:35;;;;;;;0.82;0.30;;;;;;;12.01;66.50;98738.91;4463596;32;20083;-76
2021/05/22 01:55:03;;;;;;;3.00;0.40;;;;;;;12.01;65.94;98744.53;4458300;32;20147;-75
2021/05/22 01:57:33;;;;;;;2.75;0.52;;;;;;;12.02;65.49;98750.94;4459519;32;20420;-75
2021/05/22 01:59:59;;;;;;;2.65;0.60;;;;;;;11.95;66.20;98760.63;4464659;32;20059;-76
2021/05/22 02:02:25;;;;;;;2.42;0.60;;;;;;;11.87;66.18;98759.47;4453998;32;20392;-76
2021/05/22 02:04:52;;;;;;;1.67;0.50;;;;;;;11.77;67.58;98751.69;4452922;32;20473;-76
2021/05/22 02:07:19;;;;;;;1.65;0.57;;;;;;;11.67;67.73;98765.16;4452742;32;20107;-76
2021/05/22 02:09:48;;;;;;;2.65;0.40;;;;;;;11.77;65.86;98763.72;4451844;32;20059;-76
2021/05/22 02:12:14;;;;;;;0.95;0.40;;;;;;;11.71;65.68;98764.91;4453710;32;20037;-76
2021/05/22 02:14:42;;;;;;;2.03;0.62;;;;;;;11.75;65.99;98768.28;4453408;32;20158;-76
2021/05/22 02:17:11;;;;;;;0.73;0.20;;;;;;;11.73;66.35;98768.03;4450554;32;20077;-76
2021/05/22 02:19:38;;;;;;;2.53;0.45;;;;;;;11.74;65.93;98772.38;4453427;32;20068;-76
2021/05/22 02:22:09;;;;;;;0.55;0.30;;;;;;;11.82;66.08;98771.47;4452037;32;20017;-76
2021/05/22 02:24:36;;;;;;;0.70;0.30;;;;;;;11.81;65.60;98774.78;4448325;32;20041;-76
2021/05/22 02:27:02;;;;;;;0.80;0.30;;;;;;;11.78;65.97;98779.34;4453333;32;20029;-76
2021/05/22 02:29:28;;;;;;;0.60;0.22;;;;;;;11.74;64.84;98775.19;4453821;32;20147;-76
2021/05/22 02:31:56;;;;;;;1.95;0.40;;;;;;;11.61;65.63;98798.06;4453851;32;20068;-76
2021/05/22 02:34:30;;;;;;;4.28;0.30;;;;;;;11.76;66.02;98793.16;4448611;32;20322;-76
2021/05/22 02:36:58;;;;;;;1.85;0.30;;;;;;;11.89;66.17;98787.97;4456038;32;20064;-76
2021/05/22 02:39:27;;;;;;;0.70;0.30;;;;;;;11.99;65.57;98791.38;4438606;32;20066;-76
2021/05/22 02:41:55;;;;;;;0.50;0.30;;;;;;;12.13;64.75;98796.19;4442169;32;20096;-76
2021/05/22 02:44:24;;;;;;;0.50;0.30;;;;;;;12.25;64.14;98789.37;4442134;32;20422;-76
2021/05/22 02:46:51;;;;;;;1.20;0.40;;;;;;;12.07;63.51;98793.31;4441164;32;20100;-76
2021/05/22 02:49:20;;;;;;;0.68;0.30;;;;;;;12.12;64.42;98793.84;4439791;32;20093;-76
2021/05/22 02:51:49;;;;;;;2.22;0.30;;;;;;;12.08;64.09;98802.50;4441648;32;20029;-76
2021/05/22 02:54:18;;;;;;;1.37;0.32;;;;;;;12.14;63.50;98800.53;4440329;32;20045;-76
2021/05/22 02:56:44;;;;;;;0.88;0.30;;;;;;;12.03;64.17;98803.25;4441731;32;20056;-76
2021/05/22 02:59:10;;;;;;;1.00;0.40;;;;;;;11.88;63.82;98806.13;4444037;32;20084;-75
2021/05/22 03:01:36;;;;;;;1.08;0.20;;;;;;;12.04;63.22;98808.38;4440075;32;20037;-76
2021/05/22 03:04:03;;;;;;;1.08;0.37;;;;;;;12.00;63.42;98815.50;4439031;32;20091;-77
2021/05/22 03:06:29;;;;;;;0.52;0.30;;;;;;;12.02;63.74;98808.09;4432548;32;20077;-76
2021/05/22 03:08:56;;;;;;;1.35;0.40;;;;;;;12.00;63.58;98821.13;4441674;32;20437;-76
2021/05/22 03:11:22;;;;;;;1.10;0.32;;;;;;;12.09;63.77;98821.00;4445156;32;20495;-77
2021/05/22 03:13:49;;;;;;;1.15;0.40;;;;;;;11.97;64.03;98825.72;4440299;32;20149;-76
2021/05/22 03:16:15;;;;;;;1.02;0.28;;;;;;;11.85;64.32;98832.47;4444725;32;20100;-76
2021/05/22 03:18:42;;;;;;;0.73;0.30;;;;;;;11.87;64.52;98834.78;4445278;32;20133;-76
2021/05/22 03:21:09;;;;;;;3.78;0.45;;;;;;;12.00;64.36;98846.50;4440452;32;20104;-76
2021/05/22 03:23:35;;;;;;;1.40;0.40;;;;;;;11.89;63.93;98835.09;4441249;32;20026;-76
2021/05/22 03:26:01;;;;;;;0.80;0.20;;;;;;;11.96;63.99;98840.28;4439283;32;20404;-76
2021/05/22 03:28:27;;;;;;;0.98;0.30;;;;;;;12.00;63.89;98852.16;4437600;32;20064;-76
2021/05/22 03:30:53;;;;;;;1.30;0.30;;;;;;;12.00;64.07;98850.09;4437471;32;20077;-76
2021/05/22 03:33:21;;;;;;;2.05;0.40;;;;;;;12.05;63.30;98852.22;4439584;32;20090;-76
2021/05/22 03:35:46;;;;;;;0.77;0.30;;;;;;;12.02;63.01;98872.16;4438580;32;20517;-76
2021/05/22 03:38:12;;;;;;;8.07;0.40;;;;;;;11.89;63.41;98869.69;4446126;32;20110;-76
2021/05/22 03:40:38;;;;;;;1.33;0.50;;;;;;;11.97;63.07;98875.69;4441889;32;20757;-76
2021/05/22 03:43:04;;;;;;;1.27;0.37;;;;;;;12.06;63.46;98875.56;4439489;32;20432;-76
2021/05/22 03:45:30;;;;;;;0.52;0.20;;;;;;;12.01;63.54;98884.69;4444923;32;20067;-76
2021/05/22 03:47:55;;;;;;;1.33;0.60;;;;;;;12.06;62.97;98884.00;4442288;32;20097;-76
2021/05/22 03:50:21;;;;;;;1.35;0.90;;;;;;;12.16;62.72;98890.25;4438666;32;21489;-76
2021/05/22 03:52:46;;;;;;;3.22;0.45;;;;;;;12.11;63.14;98886.09;4442976;32;20077;-76
2021/05/22 03:55:15;;;;;;;4.05;0.50;;;;;;;12.10;62.55;98899.41;4436805;32;20438;-76
2021/05/22 03:57:41;;;;;;;2.40;0.40;;;;;;;12.11;62.83;98883.28;4437367;32;20419;-76
2021/05/22 04:00:09;;;;;;;0.65;0.30;;;;;;;12.06;63.48;98890.41;4440515;32;20025;-76
2021/05/22 04:02:35;;;;;;;2.25;0.30;;;;;;;12.07;62.41;98900.44;4439744;32;20034;-76
2021/05/22 04:05:01;;;;;;;0.62;0.30;;;;;;;12.10;62.68;98895.84;4441849;32;20069;-76
2021/05/22 04:07:26;;;;;;;1.73;0.40;;;;;;;12.19;62.50;98906.19;4444118;32;20029;-76
2021/05/22 04:09:52;;;;;;;1.23;0.30;;;;;;;12.16;61.42;98912.81;4441516;32;20478;-76
2021/05/22 04:12:18;;;;;;;0.70;0.20;;;;;;;12.07;61.56;98914.53;4432626;32;20044;-76
2021/05/22 04:14:44;;;;;;;2.05;0.20;;;;;;;12.00;62.22;98903.66;4439958;32;20054;-76
2021/05/22 04:17:10;;;;;;;1.65;0.35;;;;;;;11.91;62.66;98908.66;4427197;32;20339;-76
2021/05/22 04:19:36;;;;;;;0.73;0.20;;;;;;;11.92;62.73;98918.66;4444581;32;20100;-76
2021/05/22 04:22:01;;;;;;;2.08;0.25;;;;;;;12.00;62.00;98914.91;4439277;32;20068;-76
2021/05/22 04:24:27;;;;;;;0.98;0.22;;;;;;;11.95;61.83;98921.28;4438328;32;20029;-76
2021/05/22 04:26:53;;;;;;;1.02;0.20;;;;;;;11.93;61.40;98920.19;4435201;32;20084;-76
2021/05/22 04:29:19;;;;;;;1.02;0.30;;;;;;;11.83;61.76;98927.22;4425154;32;20030;-77
2021/05/22 04:31:44;;;;;;;3.33;0.30;;;;;;;11.77;62.62;98934.84;4441644;32;20077;-76
2021/05/22 04:34:11;;;;;;;0.88;0.30;;;;;;;11.79;62.52;98927.44;4436929;32;20087;-76
2021/05/22 04:36:37;;;;;;;3.40;0.32;;;;;;;11.64;62.87;98935.16;4441987;32;20107;-76
2021/05/22 04:39:04;;;;;;;2.28;0.20;;;;;;;11.73;62.85;98945.53;4441346;32;20124;-76
2021/05/22 04:41:29;;;;;;;1.10;0.20;;;;;;;11.52;63.27;98946.72;4434727;32;20033;-76
2021/05/22 04:43:56;;;;;;;1.87;0.28;;;;;;;11.61;63.65;98944.56;4437227;32;20038;-76
2021/05/22 04:46:21;;;;;;;3.28;0.62;;;;;;;11.72;63.54;98949.63;4448130;32;20079;-76
2021/05/22 04:48:47;;;;;;;0.95;0.35;;;;;;;11.89;62.46;98957.06;4441886;32;20073;-76
2021/05/22 04:51:15;;;;;;;2.20;0.30;;;;;;;11.93;61.74;98966.09;4440070;32;20091;-76
2021/05/22 04:53:44;;;;;;;1.02;0.28;;;;;;;11.97;62.37;98968.72;4442071;32;20065;-76
2021/05/22 04:56:10;;;;;;;0.55;0.28;;;;;;;12.13;61.57;98973.81;4439231;32;20029;-76
2021/05/22 04:58:36;;;;;;;0.30;0.20;;;;;;;12.05;61.12;98975.47;4445575;32;20060;-77
2021/05/22 05:01:02;;;;;;;2.35;0.43;;;;;;;12.01;61.04;98977.72;4437894;32;20478;-76
2021/05/22 05:03:28;;;;;;;0.50;0.22;;;;;;;11.94;61.07;98992.25;4439446;32;20505;-76
2021/05/22 05:05:54;;;;;;;1.17;0.32;;;;;;;11.93;61.18;98993.47;4438640;32;20119;-76
2021/05/22 05:08:21;;;;;;;1.48;0.20;;;;;;;11.96;61.36;98990.47;4436633;32;20448;-76
2021/05/22 05:10:48;;;;;;;2.17;0.20;;;;;;;11.91;61.96;98996.03;4437359;32;20084;-76
2021/05/22 05:13:15;;;;;;;3.05;0.20;;;;;;;12.00;61.10;98993.84;4428416;32;20467;-76
2021/05/22 05:15:41;;;;;;;1.92;0.20;;;;;;;11.96;60.82;99001.75;4438587;32;20066;-76
2021/05/22 05:18:07;;;;;;;2.45;0.30;;;;;;;11.96;61.37;99004.56;4431949;32;20135;-76
2021/05/22 05:20:32;;;;;;;1.73;0.30;;;;;;;11.79;61.91;99006.34;4439602;32;20397;-76
2021/05/22 05:22:58;;;;;;;0.52;0.20;;;;;;;11.90;61.71;99014.19;4443232;32;20057;-77
2021/05/22 05:25:24;;;;;;;1.55;0.20;;;;;;;11.92;61.84;99011.66;4441567;32;20084;-76
2021/05/22 05:27:49;;;;;;;1.83;0.32;;;;;;;11.87;60.92;99012.34;4440806;32;20045;-76
2021/05/22 05:30:16;;;;;;;0.55;0.20;;;;;;;11.89;62.02;99015.47;4439898;32;20469;-76
2021/05/22 05:32:43;;;;;;;1.40;0.20;;;;;;;11.99;60.83;99026.13;4441228;32;20148;-76
2021/05/22 05:35:10;;;;;;;1.15;0.25;;;;;;;11.85;60.63;99017.72;4439001;32;20084;-76
2021/05/22 05:37:36;;;;;;;0.85;0.30;;;;;;;11.95;60.80;99031.22;4442746;32;20077;-76
2021/05/22 05:40:02;;;;;;;0.60;0.20;;;;;;;11.96;61.13;99031.97;4438824;32;20450;-76
2021/05/22 05:42:27;;;;;;;1.05;0.20;;;;;;;11.99;60.53;99033.81;4439358;32;20069;-76
2021/05/22 05:44:53;;;;;;;0.30;0.30;;;;;;;12.07;61.05;99035.75;4440914;32;20141;-76
2021/05/22 05:47:19;;;;;;;3.72;0.20;;;;;;;12.15;61.31;99043.81;4436184;32;20069;-75
2021/05/22 05:49:44;;;;;;;0.20;0.20;;;;;;;12.18;61.17;99045.63;4439694;32;20046;-75
2021/05/22 05:52:11;;;;;;;1.33;0.20;;;;;;;12.22;60.57;99041.34;4439088;32;20163;-75
2021/05/22 05:54:37;;;;;;;2.15;0.30;;;;;;;12.41;60.24;99053.94;4437086;32;20029;-75
2021/05/22 05:57:04;;;;;;;0.65;0.20;;;;;;;12.42;59.32;99044.19;4437258;32;20060;-75
2021/05/22 05:59:29;;;;;;;2.40;0.17;;;;;;;12.43;59.63;99057.06;4441887;32;20041;-75
2021/05/22 06:01:55;;;;;;;1.40;0.40;;;;;;;12.54;59.27;99064.88;4434496;32;20041;-75
2021/05/22 06:04:20;;;;;;;0.77;0.40;;;;;;;12.53;58.33;99064.09;4438396;32;20073;-75
2021/05/22 06:06:47;;;;;;;1.55;0.62;;;;;;;12.61;58.60;99068.03;4435066;32;20095;-75
2021/05/22 06:09:12;;;;;;;1.48;0.30;;;;;;;12.77;59.00;99080.84;4443119;32;20076;-75
2021/05/22 06:11:38;;;;;;;1.25;0.30;;;;;;;12.69;58.05;99077.66;4438289;32;20093;-75
2021/05/22 06:14:10;;;;;;;0.40;0.20;;;;;;;12.51;58.53;99088.41;4445876;32;20045;-76
2021/05/22 06:16:36;;;;;;;0.77;0.20;;;;;;;12.41;59.66;99087.00;4441886;32;20045;-75
2021/05/22 06:19:03;;;;;;;0.30;0.13;;;;;;;12.56;58.93;99096.97;4442242;32;20030;-75
2021/05/22 06:21:28;;;;;;;1.85;0.30;;;;;;;12.81;58.91;99096.28;4441485;32;20502;-75
2021/05/22 06:23:54;;;;;;;1.85;0.30;;;;;;;12.79;57.51;99093.19;4442162;32;20041;-75
2021/05/22 06:26:20;;;;;;;1.83;0.20;;;;;;;13.02;57.54;99103.53;4448297;32;20052;-75
2021/05/22 06:28:46;;;;;;;1.48;0.30;;;;;;;13.05;57.30;99110.22;4443265;32;20053;-75
2021/05/22 06:31:12;;;;;;;1.37;0.20;;;;;;;13.30;57.47;99117.97;4442080;32;20076;-75
2021/05/22 06:33:37;;;;;;;1.00;0.20;;;;;;;13.14;56.52;99119.34;4440784;32;20041;-75
2021/05/22 06:36:04;;;;;;;0.32;0.20;;;;;;;13.06;56.31;99114.59;4443009;32;20072;-75
2021/05/22 06:38:29;;;;;;;1.52;0.40;;;;;;;13.19;56.79;99121.44;4442790;32;20092;-75
2021/05/22 06:40:56;;;;;;;1.40;0.43;;;;;;;13.31;57.18;99136.47;4430661;32;20418;-75
2021/05/22 06:43:22;;;;;;;0.65;0.20;;;;;;;13.41;55.77;99127.34;4442518;32;20037;-75
2021/05/22 06:48:33;;;;;;;2.60;0.28;;;;;;;13.20;56.34;99131.47;4447512;32;20084;-75
2021/05/22 06:51:01;;;;;;;1.12;0.37;;;;;;;13.31;56.27;99134.44;4440158;32;20116;-77
2021/05/22 06:53:26;;;;;;;1.05;0.35;;;;;;;13.53;56.16;99139.56;4428653;32;20185;-75
2021/05/22 06:55:52;;;;;;;1.70;0.40;;;;;;;13.82;55.34;99142.19;4437937;32;20077;-76
2021/05/22 06:58:18;;;;;;;0.32;0.20;;;;;;;14.15;54.54;99145.34;4431132;32;20026;-76
2021/05/22 07:00:45;;;;;;;2.40;0.50;;;;;;;14.14;53.55;99157.91;4440813;32;20402;-76
2021/05/22 07:03:10;;;;;;;3.60;0.40;;;;;;;14.16;53.68;99157.41;4439508;32;20056;-76
2021/05/22 07:05:36;;;;;;;2.58;0.30;;;;;;;13.88;53.82;99166.44;4435515;32;20053;-76
2021/05/22 07:08:02;;;;;;;0.70;0.40;;;;;;;13.70;55.38;99166.75;4441001;32;20026;-76
2021/05/22 07:10:29;;;;;;;1.50;0.20;;;;;;;13.29;55.51;99181.41;4438988;32;20095;-75
2021/05/22 07:12:55;;;;;;;2.00;0.40;;;;;;;13.39;56.02;99165.84;4448887;32;20139;-75
2021/05/22 07:15:21;;;;;;;0.93;0.25;;;;;;;13.00;56.04;99185.13;4442744;32;20041;-75
2021/05/22 07:17:47;;;;;;;2.53;0.20;;;;;;;12.98;56.25;99184.03;4441213;32;20093;-75
2021/05/22 07:20:14;;;;;;;0.65;0.13;;;;;;;12.66;57.24;99188.72;4427854;32;20072;-76
2021/05/22 07:22:40;;;;;;;1.45;0.50;;;;;;;12.58;58.03;99198.81;4443768;32;20044;-75
2021/05/22 07:25:06;;;;;;;3.80;0.35;;;;;;;12.51;57.00;99199.25;4441128;32;20025;-75
2021/05/22 07:27:35;;;;;;;1.05;0.55;;;;;;;12.63;57.76;99203.00;4439644;32;20168;-76
2021/05/22 07:30:07;;;;;;;1.77;0.20;;;;;;;12.76;57.71;99212.72;4427984;32;20029;-75
2021/05/22 07:32:32;;;;;;;2.00;0.20;;;;;;;13.00;55.20;99215.41;4438537;32;20221;-75
2021/05/22 07:34:58;;;;;;;0.65;0.30;;;;;;;13.21;55.07;99214.16;4439222;32;20050;-75
2021/05/22 07:37:24;;;;;;;2.17;0.25;;;;;;;13.31;55.02;99215.56;4438304;32;20127;-75
2021/05/22 07:39:50;;;;;;;0.77;0.30;;;;;;;13.33;54.20;99215.87;4438736;32;20042;-76
2021/05/22 07:42:16;;;;;;;1.23;0.30;;;;;;;13.58;53.58;99224.41;4437469;32;20151;-75
2021/05/22 07:44:41;;;;;;;2.72;0.50;;;;;;;13.44;54.94;99228.09;4435114;32;20029;-75
2021/05/22 07:47:07;;;;;;;0.98;0.40;;;;;;;13.57;53.59;99224.91;4435185;32;20084;-75
2021/05/22 07:49:40;;;;;;;2.95;0.60;;;;;;;13.77;54.21;99231.31;4437626;32;20065;-75
2021/05/22 07:52:09;;;;;;;2.25;0.20;;;;;;;13.73;53.33;99241.28;4443677;32;20084;-75
2021/05/22 07:54:35;;;;;;;1.98;0.30;;;;;;;13.74;53.21;99237.97;4438855;32;20064;-74
2021/05/22 07:57:04;;;;;;;0.68;0.30;;;;;;;13.72;53.20;99251.06;4443452;32;20104;-75
2021/05/22 07:59:30;;;;;;;2.08;0.50;;;;;;;13.80;52.83;99249.34;4438644;32;20017;-74
2021/05/22 08:01:55;;;;;;;0.82;0.20;;;;;;;13.72;53.02;99251.81;4436525;32;20076;-75
2021/05/22 08:04:21;;;;;;;1.85;0.20;;;;;;;13.58;53.62;99264.00;4444555;32;20096;-75
2021/05/22 08:06:47;;;;;;;2.20;0.30;;;;;;;13.75;53.34;99253.66;4424141;32;21561;-75
2021/05/22 08:09:13;;;;;;;2.80;0.52;;;;;;;13.90;52.27;99257.16;4438930;32;20132;-75
2021/05/22 08:11:39;;;;;;;1.58;0.40;;;;;;;14.00;52.80;99258.56;4436210;32;20077;-75
2021/05/22 08:14:04;;;;;;;1.15;0.40;;;;;;;14.25;51.66;99267.59;4438887;32;20073;-75
2021/05/22 08:16:30;;;;;;;1.90;0.40;;;;;;;14.04;51.46;99269.66;4441796;32;20081;-75
2021/05/22 08:18:56;;;;;;;6.28;0.60;;;;;;;14.18;52.44;99265.97;4441519;32;20135;-74
2021/05/22 08:21:23;;;;;;;2.05;0.30;;;;;;;14.24;53.02;99283.03;4435141;32;20055;-77
2021/05/22 08:23:50;;;;;;;0.62;0.32;;;;;;;14.04;52.24;99273.28;4435104;32;20085;-76
2021/05/22 08:26:15;;;;;;;3.30;0.25;;;;;;;14.25;51.22;99274.06;4437563;32;20033;-75
2021/05/22 08:28:41;;;;;;;3.65;0.43;;;;;;;14.41;52.09;99283.97;4439979;32;20069;-75
2021/05/22 08:31:07;;;;;;;2.08;0.43;;;;;;;14.37;50.90;99286.25;4439623;32;20022;-76
2021/05/22 08:33:33;;;;;;;5.30;0.43;;;;;;;14.70;49.70;99297.91;4435405;32;20195;-76
2021/05/22 08:35:59;;;;;;;0.70;0.20;;;;;;;14.65;49.39;99302.22;4437898;32;20057;-75
2021/05/22 08:38:24;;;;;;;0.75;0.30;;;;;;;14.51;50.45;99305.94;4438558;32;20112;-75
2021/05/22 08:40:50;;;;;;;4.10;0.50;;;;;;;14.56;51.04;99296.75;4444078;32;20064;-75
2021/05/22 08:43:16;;;;;;;1.20;0.40;;;;;;;14.59;49.42;99303.44;4437414;32;20037;-74
2021/05/22 08:45:43;;;;;;;1.95;0.50;;;;;;;14.43;50.33;99307.69;4439702;32;20064;-75
2021/05/22 08:48:09;;;;;;;1.23;0.40;;;;;;;14.56;50.15;99313.72;4440355;32;20095;-75
2021/05/22 08:50:35;;;;;;;2.58;0.70;;;;;;;14.93;50.17;99316.63;4444896;32;20069;-75
2021/05/22 08:53:01;;;;;;;0.95;0.50;;;;;;;15.03;50.32;99321.59;4445929;32;20079;-75
2021/05/22 08:55:27;;;;;;;0.57;0.30;;;;;;;15.44;48.79;99316.53;4433938;32;20081;-75
2021/05/22 08:57:53;;;;;;;2.25;0.60;;;;;;;15.88;47.32;99322.44;4424715;32;20037;-75
2021/05/22 09:00:22;;;;;;;1.25;0.22;;;;;;;16.02;46.82;99332.81;4440661;32;20059;-75
2021/05/22 09:02:48;;;;;;;0.70;0.30;;;;;;;16.34;46.22;99339.91;4438148;32;20125;-75
2021/05/22 09:07:55;;;;;;;1.20;0.30;;;;;;;17.17;44.48;99348.56;3951122;32;15867540;-76
2021/05/22 09:13:03;;;;;;;0.50;0.30;;;;;;;16.47;45.00;99348.72;3974415;32;15024317;-76
2021/05/22 09:15:32;;;;;;;1.15;0.50;;;;;;;16.32;46.42;99353.06;4425773;32;20215;-76
2021/05/22 09:18:02;;;;;;;1.65;0.80;;;;;;;16.37;45.30;99350.22;4428638;32;20098;-76
2021/05/22 09:20:31;;;;;;;1.62;0.60;;;;;;;16.41;44.95;99358.50;4426235;32;20134;-76
2021/05/22 09:25:36;;;;;;;2.90;0.57;;;;;;;16.48;45.34;99364.50;3982045;32;15022803;-76
2021/05/22 09:28:04;;;;;;;2.60;0.60;;;;;;;16.48;45.34;99364.50;4435453;32;20056;-75
2021/05/22 09:30:31;;;;;;;2.67;0.45;;;;;;;15.96;46.37;99361.16;4439455;32;20042;-75
2021/05/22 09:32:57;;;;;;;1.48;0.50;;;;;;;15.73;46.54;99364.38;4436266;32;20102;-75
2021/05/22 09:35:25;;;;;;;1.23;0.45;;;;;;;15.65;46.82;99360.47;4440009;32;20022;-75
2021/05/22 09:37:58;;;;;;;1.70;0.50;;;;;;;15.30;48.39;99359.94;4436744;32;20064;-75
2021/05/22 09:43:07;;;;;;;3.03;0.47;;;;;;;15.32;47.96;99377.22;3985830;32;15022927;-74
2021/05/22 09:48:27;;;;;;;3.78;1.12;;;;;;;15.45;47.76;99383.28;3982173;32;15022637;-77
2021/05/22 09:50:54;;;;;;;1.45;0.52;;;;;;;15.45;47.76;99383.28;4432441;32;20129;-76
2021/05/22 10:01:42;;;;;;;1.25;0.70;;;;;;;14.99;49.32;99394.72;3983177;32;15027417;-76
2021/05/22 10:04:23;;;;;;;1.70;0.40;;;;;;;14.75;50.68;99394.22;4442337;32;20426;-75
2021/05/22 10:06:49;;;;;;;2.05;0.60;;;;;;;14.91;50.06;99395.69;4434403;32;20153;-75
2021/05/22 10:09:17;;;;;;;0.75;0.40;;;;;;;14.88;49.17;99403.09;4442087;32;20080;-75
2021/05/22 10:14:42;;;;;;;1.98;0.85;;;;;;;15.22;47.69;99404.97;3956126;32;15724578;-75
2021/05/22 10:17:10;;;;;;;1.55;0.40;;;;;;;15.11;47.76;99401.25;4433458;32;20095;-76
2021/05/22 10:19:37;;;;;;;2.22;0.50;;;;;;;15.44;48.89;99413.66;4439541;32;20045;-75
2021/05/22 10:22:05;;;;;;;7.60;0.90;;;;;;;15.96;47.14;99415.06;4420293;32;20030;-74
2021/05/22 10:24:31;;;;;;;0.40;0.40;;;;;;;16.51;46.41;99417.41;4431989;32;20077;-76
2021/05/22 10:26:58;;;;;;;2.65;0.57;;;;;;;16.84;44.01;99433.81;4435044;32;20069;-76
2021/05/22 10:29:25;;;;;;;2.03;0.60;;;;;;;16.67;44.23;99430.91;4436220;32;20080;-76
2021/05/22 10:31:52;;;;;;;3.42;0.90;;;;;;;16.77;44.17;99428.59;4430465;32;20068;-75
2021/05/22 10:34:20;;;;;;;0.73;0.40;;;;;;;16.82;44.86;99427.84;4436334;32;20117;-75
2021/05/22 10:44:54;;;;;;;0.93;0.40;;;;;;;16.61;45.07;99443.53;3964618;32;15023815;-76
2021/05/22 10:47:26;;;;;;;9.27;0.77;;;;;;;16.57;44.99;99451.53;4421481;32;20413;-76
2021/05/22 11:00:20;;;;;;;1.27;0.60;;;;;;;16.65;45.86;99461.88;3999470;31;15019213;-76
2021/05/22 11:02:50;;;;;;;1.10;0.37;;;;;;;16.25;46.54;99458.56;4438484;32;20020;-76
2021/05/22 11:10:48;;;;;;;3.75;0.55;;;;;;;16.14;46.65;99470.62;4007744;31;15016922;-75
2021/05/22 11:29:53;;;;;;;4.30;1.60;;;;;;;15.75;47.72;99497.97;4008100;31;15018251;-77
2021/05/22 11:32:56;;;;;;;6.60;1.70;;;;;;;15.75;47.72;99497.97;4456088;32;20084;-76
2021/05/22 11:40:54;;;;;;;1.70;0.93;;;;;;;16.29;47.44;99508.13;3984624;32;15024163;-76
2021/05/22 11:56:30;;;;;;;2.03;1.02;;;;;;;16.48;45.30;99509.31;3998879;31;15014658;-77
2021/05/22 11:58:58;;;;;;;2.70;0.90;;;;;;;16.31;45.82;99521.81;4460545;32;20040;-76
2021/05/22 12:04:03;;;;;;;1.37;0.60;;;;;;;16.12;46.59;99524.28;3983679;32;15024887;-76
2021/05/22 12:06:32;;;;;;;0.80;0.43;;;;;;;16.12;46.59;99524.28;4440995;32;20376;-76
2021/05/22 12:11:43;;;;;;;1.00;0.60;;;;;;;16.14;46.85;99521.72;3983269;32;15023083;-76
2021/05/22 12:14:09;;;;;;;1.73;0.70;;;;;;;15.92;46.78;99524.38;4438625;32;20072;-76
2021/05/22 12:16:36;;;;;;;2.95;0.60;;;;;;;15.84;46.88;99524.06;4435871;32;20018;-76
2021/05/22 12:19:18;;;;;;;0.90;0.55;;;;;;;15.85;46.87;99534.16;4441124;32;20045;-76
2021/05/22 12:21:50;;;;;;;2.80;0.85;;;;;;;15.55;47.41;99526.41;4441978;32;20067;-76
2021/05/22 12:24:17;;;;;;;0.70;0.50;;;;;;;15.58;48.07;99525.41;4438972;32;20137;-76
2021/05/22 12:26:50;;;;;;;1.75;0.40;;;;;;;15.50;47.39;99527.16;4441413;32;20025;-76
2021/05/22 12:29:16;;;;;;;1.12;0.40;;;;;;;15.61;46.59;99521.56;4439397;32;20481;-76
2021/05/22 12:31:55;;;;;;;0.90;0.50;;;;;;;15.55;46.35;99538.53;4439328;32;20611;-76
2021/05/22 12:34:34;;;;;;;1.37;0.65;;;;;;;15.39;46.73;99524.19;4439850;32;20064;-76
2021/05/22 12:39:41;;;;;;;3.47;0.77;;;;;;;15.60;47.26;99537.03;3984046;32;15024390;-76
2021/05/22 12:47:47;;;;;;;1.45;0.65;;;;;;;16.06;45.94;99554.69;3955282;32;15723624;-77
2021/05/22 12:50:17;;;;;;;1.52;0.45;;;;;;;16.06;45.94;99554.69;4438846;32;20460;-75
2021/05/22 12:53:03;;;;;;;3.50;0.47;;;;;;;15.76;46.37;99554.19;4432071;32;20056;-75
2021/05/22 12:55:31;;;;;;;0.68;0.40;;;;;;;15.62;46.38;99551.50;4437569;32;20095;-75
2021/05/22 12:57:59;;;;;;;0.55;0.40;;;;;;;15.48;46.65;99553.16;4429648;32;20049;-77
2021/05/22 13:00:27;;;;;;;2.28;0.60;;;;;;;15.47;47.31;99553.66;4433282;32;20022;-76
2021/05/22 13:02:57;;;;;;;2.65;0.60;;;;;;;15.81;46.70;99552.69;4436619;32;20100;-76
2021/05/22 13:05:26;;;;;;;1.48;0.68;;;;;;;16.30;45.75;99560.81;4434673;32;20054;-77
2021/05/22 13:07:58;;;;;;;1.87;0.70;;;;;;;16.99;44.82;99553.69;4432159;32;20143;-76
2021/05/22 13:13:08;;;;;;;0.73;0.45;;;;;;;19.82;38.66;99567.03;3978139;32;15021836;-77
2021/05/22 13:18:11;;;;;;;1.83;0.68;;;;;;;19.90;37.58;99562.28;3984251;32;15025319;-77
2021/05/22 13:20:41;;;;;;;2.17;0.47;;;;;;;19.96;37.30;99568.72;4440955;32;20401;-78
2021/05/22 13:23:44;;;;;;;1.23;0.50;;;;;;;19.90;37.22;99568.78;4435834;32;20065;-77
2021/05/22 13:29:04;;;;;;;1.80;0.30;;;;;;;20.41;35.39;99567.84;3983845;32;15037814;-76